Time;durP1;ratioP1;P1;durP2;ratioP2;P2;SDS_P1;SDS_P2;PMS_P1;PMS_P2;Temp;Humidity;BMP_temperature;BMP_pressure;BME280_temperature;BME280_humidity;BME280_pressure;Samples;Min_cycle;Max_cycle;Signal;HPM_P1;HPM_P2
2021/10/03 00:02:24;;;;;;;;;;;;;;;10.92;72.47;101872.44;2021068;71;20096;-60
2021/10/03 00:04:53;;;;;;;;;;;;;;;10.91;72.51;101865.45;2021077;71;20105;-60
2021/10/03 00:07:21;;;;;;;;;;;;;;;10.91;72.55;101872.03;2021181;71;20099;-60
2021/10/03 00:09:50;;;;;;;;;;;;;;;10.89;72.57;101868.11;2021149;71;20185;-60
2021/10/03 00:12:18;;;;;;;;;;;;;;;10.88;72.62;101873.41;2021099;71;20100;-60
2021/10/03 00:14:46;;;;;;;;;;;;;;;10.87;72.63;101870.37;2021045;71;20108;-60
2021/10/03 00:17:15;;;;;;;;;;;;;;;10.86;72.63;101872.12;2021152;71;20104;-60
2021/10/03 00:19:43;;;;;;;;;;;;;;;10.85;72.42;101870.86;2021081;71;20159;-60
2021/10/03 00:22:10;;;;;;;;;;;;;;;10.84;72.66;101868.66;2021221;71;20142;-60
2021/10/03 00:24:39;;;;;;;;;;;;;;;10.81;72.80;101870.92;2021174;71;20099;-60
2021/10/03 00:27:07;;;;;;;;;;;;;;;10.80;73.00;101867.00;2021141;71;20116;-60
2021/10/03 00:29:35;;;;;;;;;;;;;;;10.79;72.72;101866.59;2021067;71;20112;-60
2021/10/03 00:32:05;;;;;;;;;;;;;;;10.77;72.78;101869.27;2021061;71;20138;-60
2021/10/03 00:34:33;;;;;;;;;;;;;;;10.77;72.74;101869.27;2021106;70;20104;-60
2021/10/03 00:37:01;;;;;;;;;;;;;;;10.75;72.63;101867.11;2021129;71;20354;-60
2021/10/03 00:39:29;;;;;;;;;;;;;;;10.74;72.89;101864.05;2021085;71;20139;-60
2021/10/03 00:41:57;;;;;;;;;;;;;;;10.73;72.85;101860.13;2021059;71;20134;-60
2021/10/03 00:44:24;;;;;;;;;;;;;;;10.72;72.75;101861.91;2021128;71;20138;-60
2021/10/03 00:46:52;;;;;;;;;;;;;;;10.72;72.84;101864.99;2021131;71;20112;-60
2021/10/03 00:49:20;;;;;;;;;;;;;;;10.70;72.90;101865.02;2021084;71;20108;-60
2021/10/03 00:51:48;;;;;;;;;;;;;;;10.68;72.84;101862.88;2021155;71;20100;-60
2021/10/03 00:54:16;;;;;;;;;;;;;;;10.68;72.60;101868.14;2021102;71;20112;-60
2021/10/03 00:56:44;;;;;;;;;;;;;;;10.68;72.48;101869.46;2021105;71;20221;-60
2021/10/03 00:59:13;;;;;;;;;;;;;;;10.68;72.39;101868.14;2021133;71;20100;-59
2021/10/03 01:01:40;;;;;;;;;;;;;;;10.66;72.32;101868.63;2021123;71;20183;-59
2021/10/03 01:04:08;;;;;;;;;;;;;;;10.67;72.29;101870.34;2021156;71;20108;-60
2021/10/03 01:06:36;;;;;;;;;;;;;;;10.66;72.51;101876.96;2021282;71;20112;-60
2021/10/03 01:09:04;;;;;;;;;;;;;;;10.63;72.32;101872.63;2020962;71;20546;-60
2021/10/03 01:11:31;;;;;;;;;;;;;;;10.62;72.27;101876.16;2021251;71;20100;-59
2021/10/03 01:13:59;;;;;;;;;;;;;;;10.62;72.19;101874.84;2021120;71;20155;-60
2021/10/03 01:16:27;;;;;;;;;;;;;;;10.62;72.15;101873.52;2021087;71;20134;-60
2021/10/03 01:18:58;;;;;;;;;;;;;;;10.62;72.26;101869.57;2021132;71;20382;-60
2021/10/03 01:21:26;;;;;;;;;;;;;;;10.59;72.24;101867.87;2021013;71;20112;-59
2021/10/03 01:23:55;;;;;;;;;;;;;;;10.59;72.27;101870.97;2021083;71;20205;-59
2021/10/03 01:26:23;;;;;;;;;;;;;;;10.59;72.20;101874.92;2020098;71;20112;-59
2021/10/03 01:28:53;;;;;;;;;;;;;;;10.58;72.12;101877.13;2021069;71;20104;-59
2021/10/03 01:31:22;;;;;;;;;;;;;;;10.56;71.97;101867.94;2021148;71;20386;-59
2021/10/03 01:33:52;;;;;;;;;;;;;;;10.56;71.99;101869.71;2021146;71;20108;-59
2021/10/03 01:36:20;;;;;;;;;;;;;;;10.54;72.02;101870.20;2021312;71;20144;-60
2021/10/03 01:38:48;;;;;;;;;;;;;;;10.53;71.96;101875.03;2021368;71;20096;-60
2021/10/03 01:41:16;;;;;;;;;;;;;;;10.51;71.90;101877.72;2021358;71;20100;-61
2021/10/03 01:43:44;;;;;;;;;;;;;;;10.51;71.94;101871.56;2021339;71;20107;-61
2021/10/03 01:46:13;;;;;;;;;;;;;;;10.49;71.87;101868.95;2021340;71;20138;-61
2021/10/03 01:48:40;;;;;;;;;;;;;;;10.49;71.79;101865.47;2021077;71;20134;-61
2021/10/03 01:51:10;;;;;;;;;;;;;;;10.50;71.74;101860.63;2021238;71;20096;-61
2021/10/03 01:53:39;;;;;;;;;;;;;;;10.49;71.72;101858.88;2021286;71;20107;-61
2021/10/03 01:56:08;;;;;;;;;;;;;;;10.47;71.66;101864.17;2021228;71;20502;-61
2021/10/03 01:58:38;;;;;;;;;;;;;;;10.47;71.68;101866.81;2021205;71;20108;-61
2021/10/03 02:01:07;;;;;;;;;;;;;;;10.47;71.80;101864.64;2021182;71;20121;-61
2021/10/03 02:03:35;;;;;;;;;;;;;;;10.43;71.71;101859.42;2021260;71;20108;-61
2021/10/03 02:06:03;;;;;;;;;;;;;;;10.43;71.70;101856.78;2021200;71;20112;-61
2021/10/03 02:08:31;;;;;;;;;;;;;;;10.43;71.70;101859.42;2021211;71;20112;-61
2021/10/03 02:11:01;;;;;;;;;;;;;;;10.42;71.65;101856.39;2021217;71;20112;-61
2021/10/03 02:13:29;;;;;;;;;;;;;;;10.42;71.57;101856.39;2021232;71;20338;-63
2021/10/03 02:16:00;;;;;;;;;;;;;;;10.41;71.62;101853.33;2021208;71;20179;-61
2021/10/03 02:18:27;;;;;;;;;;;;;;;10.41;71.58;101847.20;2020939;71;20112;-61
2021/10/03 02:20:55;;;;;;;;;;;;;;;10.39;71.62;101849.86;2020888;71;20108;-61
2021/10/03 02:23:23;;;;;;;;;;;;;;;10.37;71.60;101845.08;2021182;71;20108;-61
2021/10/03 02:25:51;;;;;;;;;;;;;;;10.37;71.55;101855.61;2021221;71;20108;-61
2021/10/03 02:28:20;;;;;;;;;;;;;;;10.36;71.58;101848.59;2021118;71;20096;-61
2021/10/03 02:30:49;;;;;;;;;;;;;;;10.35;71.58;101845.56;2021174;71;20108;-61
2021/10/03 02:33:17;;;;;;;;;;;;;;;10.35;71.70;101847.34;2021168;71;20112;-61
2021/10/03 02:35:45;;;;;;;;;;;;;;;10.31;71.69;101846.53;2021274;71;20138;-61
2021/10/03 02:38:14;;;;;;;;;;;;;;;10.31;71.74;101840.37;2021209;71;20132;-61
2021/10/03 02:40:42;;;;;;;;;;;;;;;10.28;71.73;101843.05;2021066;71;20142;-60
2021/10/03 02:43:10;;;;;;;;;;;;;;;10.28;71.73;101840.42;2021196;71;20167;-61
2021/10/03 02:45:39;;;;;;;;;;;;;;;10.27;71.60;101828.14;2021238;71;20104;-61
2021/10/03 02:48:08;;;;;;;;;;;;;;;10.27;71.64;101830.78;2021191;71;20112;-61
2021/10/03 02:50:36;;;;;;;;;;;;;;;10.26;71.60;101836.50;2021118;71;20141;-61
2021/10/03 02:53:05;;;;;;;;;;;;;;;10.24;71.66;101830.41;2021183;71;20142;-62
2021/10/03 02:55:34;;;;;;;;;;;;;;;10.23;71.56;101833.46;2021187;71;20437;-61
2021/10/03 02:58:02;;;;;;;;;;;;;;;10.21;71.60;101833.94;2021192;71;20112;-61
2021/10/03 03:00:30;;;;;;;;;;;;;;;10.21;71.63;101840.98;2021181;71;20132;-61
2021/10/03 03:02:57;;;;;;;;;;;;;;;10.19;71.61;101835.74;2021222;71;20112;-61
2021/10/03 03:05:25;;;;;;;;;;;;;;;10.19;71.55;101837.52;2021210;71;20104;-61
2021/10/03 03:07:53;;;;;;;;;;;;;;;10.18;71.55;101831.82;2021054;71;20116;-61
2021/10/03 03:10:21;;;;;;;;;;;;;;;10.17;71.55;101832.73;2021183;71;20143;-61
2021/10/03 03:12:49;;;;;;;;;;;;;;;10.15;71.54;101833.22;2021211;71;20112;-62
2021/10/03 03:15:16;;;;;;;;;;;;;;;10.14;71.47;101832.33;2021225;71;20108;-63
2021/10/03 03:17:44;;;;;;;;;;;;;;;10.14;71.51;101839.37;2021137;71;20112;-62
2021/10/03 03:20:12;;;;;;;;;;;;;;;10.14;71.41;101836.28;2021159;71;20116;-63
2021/10/03 03:22:40;;;;;;;;;;;;;;;10.13;71.36;101841.14;2021295;71;20243;-62
2021/10/03 03:25:09;;;;;;;;;;;;;;;10.13;71.38;101841.59;2021194;71;20131;-63
2021/10/03 03:27:38;;;;;;;;;;;;;;;10.13;71.46;101841.59;2021165;71;20112;-62
2021/10/03 03:30:07;;;;;;;;;;;;;;;10.13;71.38;101841.14;2021173;71;20104;-62
2021/10/03 03:32:34;;;;;;;;;;;;;;;10.13;71.32;101841.59;2021213;71;20100;-63
2021/10/03 03:35:02;;;;;;;;;;;;;;;10.12;71.33;101840.70;2019183;70;20108;-62
2021/10/03 03:37:30;;;;;;;;;;;;;;;10.12;71.27;101840.70;2008563;71;20154;-62
2021/10/03 03:39:58;;;;;;;;;;;;;;;10.12;71.23;101845.97;2008559;71;20112;-62
2021/10/03 03:42:26;;;;;;;;;;;;;;;10.14;71.27;101844.63;2008690;71;20147;-62
2021/10/03 03:44:53;;;;;;;;;;;;;;;10.14;71.24;101840.68;2008480;71;20109;-62
2021/10/03 03:47:21;;;;;;;;;;;;;;;10.14;71.17;101845.95;2008475;71;20161;-63
2021/10/03 03:49:51;;;;;;;;;;;;;;;10.15;71.12;101841.12;2008497;71;20201;-62
2021/10/03 03:52:19;;;;;;;;;;;;;;;10.15;71.16;101842.43;2008634;71;20112;-63
2021/10/03 03:54:48;;;;;;;;;;;;;;;10.16;71.31;101852.05;2008577;71;20097;-64
2021/10/03 03:57:16;;;;;;;;;;;;;;;10.14;71.23;101853.38;2008539;71;20113;-63
2021/10/03 03:59:44;;;;;;;;;;;;;;;10.14;71.18;101848.12;2008568;71;20113;-63
2021/10/03 04:02:12;;;;;;;;;;;;;;;10.15;71.19;101855.59;2008388;71;20185;-63
2021/10/03 04:04:39;;;;;;;;;;;;;;;10.14;71.23;101856.47;2008536;71;20104;-63
2021/10/03 04:07:07;;;;;;;;;;;;;;;10.16;71.17;101853.36;2008672;71;20109;-63
2021/10/03 04:09:35;;;;;;;;;;;;;;;10.18;71.16;101859.45;2008492;71;20167;-63
2021/10/03 04:12:03;;;;;;;;;;;;;;;10.20;71.17;101859.01;2008492;71;20139;-63
2021/10/03 04:14:31;;;;;;;;;;;;;;;10.21;71.10;101852.83;2008461;71;20217;-64
2021/10/03 04:16:59;;;;;;;;;;;;;;;10.24;71.07;101858.05;2008535;71;20109;-64
2021/10/03 04:19:27;;;;;;;;;;;;;;;10.27;71.11;101855.33;2008549;71;20109;-64
2021/10/03 04:21:55;;;;;;;;;;;;;;;10.27;71.15;101854.02;2008516;71;20096;-63
2021/10/03 04:24:22;;;;;;;;;;;;;;;10.28;71.05;101856.22;2008547;71;20160;-64
2021/10/03 04:26:50;;;;;;;;;;;;;;;10.27;71.14;101848.75;2008149;71;20134;-65
2021/10/03 04:29:18;;;;;;;;;;;;;;;10.29;71.01;101848.72;2007823;71;20108;-66
2021/10/03 04:31:46;;;;;;;;;;;;;;;10.31;70.95;101852.22;2008347;71;20139;-65
2021/10/03 04:34:14;;;;;;;;;;;;;;;10.32;70.96;101842.98;2008460;71;20116;-66
2021/10/03 04:36:41;;;;;;;;;;;;;;;10.35;70.96;101848.65;2013964;70;20248;-67
2021/10/03 04:39:09;;;;;;;;;;;;;;;10.38;70.88;101848.56;2047223;70;20214;-65
2021/10/03 04:41:37;;;;;;;;;;;;;;;10.41;70.94;101850.69;2026953;70;20228;-65
2021/10/03 04:44:05;;;;;;;;;;;;;;;10.43;70.83;101847.57;2045481;70;20507;-64
2021/10/03 04:46:33;;;;;;;;;;;;;;;10.48;70.77;101845.31;2015842;70;20113;-64
2021/10/03 04:49:01;;;;;;;;;;;;;;;10.52;70.72;101855.73;2008366;71;20205;-71
2021/10/03 04:51:28;;;;;;;;;;;;;;;10.56;70.84;101856.54;2012629;71;20097;-69
2021/10/03 04:53:56;;;;;;;;;;;;;;;10.56;70.72;101856.08;2020105;71;20138;-66
2021/10/03 04:56:24;;;;;;;;;;;;;;;10.56;70.78;101866.62;2015639;71;20117;-71
2021/10/03 04:58:52;;;;;;;;;;;;;;;10.55;70.89;101862.69;2008487;71;20108;-77
2021/10/03 05:01:20;;;;;;;;;;;;;;;10.52;70.87;101862.32;2000460;71;20148;-67
2021/10/03 05:03:48;;;;;;;;;;;;;;;10.53;70.82;101865.39;1983972;72;20136;-64
2021/10/03 05:06:16;;;;;;;;;;;;;;;10.54;70.80;101867.56;1980811;71;20114;-67
2021/10/03 05:08:44;;;;;;;;;;;;;;;10.53;70.78;101860.55;1972651;73;20110;-66
2021/10/03 05:11:11;;;;;;;;;;;;;;;10.53;71.07;101860.55;1985550;71;20108;-64
2021/10/03 05:13:39;;;;;;;;;;;;;;;10.52;71.05;101853.11;2018679;71;20120;-66
2021/10/03 05:16:07;;;;;;;;;;;;;;;10.52;71.06;101857.52;2018931;71;20112;-71
2021/10/03 05:18:37;;;;;;;;;;;;;;;10.55;71.01;101857.42;2020395;71;20138;-67
2021/10/03 05:21:05;;;;;;;;;;;;;;;10.57;71.29;101863.56;2020029;71;20112;-68
2021/10/03 05:23:34;;;;;;;;;;;;;;;10.56;71.24;101862.67;2018546;71;20108;-65
2021/10/03 05:26:02;;;;;;;;;;;;;;;10.57;71.27;101863.09;2018826;71;20151;-65
2021/10/03 05:28:29;;;;;;;;;;;;;;;10.58;71.41;101863.95;2020053;71;20108;-69
2021/10/03 05:30:57;;;;;;;;;;;;;;;10.57;71.24;101862.24;2020124;71;20096;-63
2021/10/03 05:33:26;;;;;;;;;;;;;;;10.58;71.34;101858.23;2020050;71;20096;-65
2021/10/03 05:35:54;;;;;;;;;;;;;;;10.59;71.59;101856.48;2019980;71;20354;-63
2021/10/03 05:38:22;;;;;;;;;;;;;;;10.61;71.64;101862.59;2029535;70;20104;-63
2021/10/03 05:40:49;;;;;;;;;;;;;;;10.62;71.87;101867.83;2029639;71;20115;-63
2021/10/03 05:43:17;;;;;;;;;;;;;;;10.65;71.79;101862.07;2029733;71;20108;-63
2021/10/03 05:45:46;;;;;;;;;;;;;;;10.68;71.79;101861.98;2029581;71;20143;-64
2021/10/03 05:48:13;;;;;;;;;;;;;;;10.74;71.91;101873.27;2029622;71;20096;-63
2021/10/03 05:50:41;;;;;;;;;;;;;;;10.77;72.19;101858.73;2029502;71;20194;-62
2021/10/03 05:53:10;;;;;;;;;;;;;;;10.81;72.22;101863.02;2029624;71;20092;-60
2021/10/03 05:55:37;;;;;;;;;;;;;;;10.84;71.90;101862.53;2029629;71;20142;-62
2021/10/03 05:58:05;;;;;;;;;;;;;;;10.88;72.14;101862.88;2029594;71;20095;-62
2021/10/03 06:00:33;;;;;;;;;;;;;;;10.88;72.03;101861.13;2029499;71;20112;-61
2021/10/03 06:03:01;;;;;;;;;;;;;;;10.92;71.93;101859.26;2029528;71;20108;-61
2021/10/03 06:05:29;;;;;;;;;;;;;;;10.92;71.94;101846.08;2029404;71;20111;-61
2021/10/03 06:07:56;;;;;;;;;;;;;;;10.96;71.72;101853.04;2029488;71;20108;-63
2021/10/03 06:10:24;;;;;;;;;;;;;;;10.98;72.21;101856.50;2029289;71;20142;-63
2021/10/03 06:12:53;;;;;;;;;;;;;;;11.02;72.07;101858.16;2029438;71;20096;-63
2021/10/03 06:15:20;;;;;;;;;;;;;;;11.06;72.20;101865.09;2029486;71;20111;-63
2021/10/03 06:17:48;;;;;;;;;;;;;;;11.08;72.03;101867.69;2029452;71;20111;-63
2021/10/03 06:20:16;;;;;;;;;;;;;;;11.13;71.92;101866.69;2029642;71;20142;-62
2021/10/03 06:22:46;;;;;;;;;;;;;;;11.22;72.07;101872.20;2029716;71;20108;-62
2021/10/03 06:25:13;;;;;;;;;;;;;;;11.32;71.96;101871.06;2029618;71;20374;-62
2021/10/03 06:27:42;;;;;;;;;;;;;;;11.39;71.88;101871.33;2029657;71;20112;-63
2021/10/03 06:30:10;;;;;;;;;;;;;;;11.39;71.97;101875.28;2029526;71;20104;-62
2021/10/03 06:32:38;;;;;;;;;;;;;;;11.43;72.05;101881.81;2029683;71;20142;-63
2021/10/03 06:35:06;;;;;;;;;;;;;;;11.42;71.92;101874.79;2029621;71;20107;-62
2021/10/03 06:37:34;;;;;;;;;;;;;;;11.42;72.00;101870.83;2029928;71;20103;-63
2021/10/03 06:40:02;;;;;;;;;;;;;;;11.43;72.00;101874.76;2030420;71;20225;-63
2021/10/03 06:42:30;;;;;;;;;;;;;;;11.43;72.04;101874.76;2030272;71;20112;-63
2021/10/03 06:44:57;;;;;;;;;;;;;;;11.44;72.11;101867.28;2030310;71;20108;-63
2021/10/03 06:47:25;;;;;;;;;;;;;;;11.42;72.25;101870.83;2030359;71;20112;-62
2021/10/03 06:49:53;;;;;;;;;;;;;;;11.38;72.22;101873.56;2030307;71;20554;-62
2021/10/03 06:52:21;;;;;;;;;;;;;;;11.38;72.41;101870.08;2030289;71;20138;-62
2021/10/03 06:54:49;;;;;;;;;;;;;;;11.38;72.36;101874.03;2030255;71;20100;-62
2021/10/03 06:57:17;;;;;;;;;;;;;;;11.42;72.36;101865.13;2030161;71;20130;-62
2021/10/03 06:59:44;;;;;;;;;;;;;;;11.45;72.52;101865.03;2030249;71;20112;-62
2021/10/03 07:02:20;;;;;;;;;;;;;;;11.49;72.58;101863.19;2030244;71;20155;-63
2021/10/03 07:04:48;;;;;;;;;;;;;;;11.50;72.48;101871.06;2029169;71;20100;-62
2021/10/03 07:07:16;;;;;;;;;;;;;;;11.50;72.40;101871.53;2030293;71;20108;-62
2021/10/03 07:09:44;;;;;;;;;;;;;;;11.49;72.83;101873.31;2030212;71;20099;-62
2021/10/03 07:12:12;;;;;;;;;;;;;;;11.48;72.61;101870.24;2030248;71;20155;-62
2021/10/03 07:14:42;;;;;;;;;;;;;;;11.49;73.01;101868.46;2030354;71;20108;-62
2021/10/03 07:17:10;;;;;;;;;;;;;;;11.46;72.96;101873.38;2030303;71;20091;-62
2021/10/03 07:19:38;;;;;;;;;;;;;;;11.49;72.97;101868.46;2030267;71;20123;-62
2021/10/03 07:22:07;;;;;;;;;;;;;;;11.50;73.12;101878.13;2030228;71;20131;-63
2021/10/03 07:24:36;;;;;;;;;;;;;;;11.49;73.17;101870.67;2030242;71;20459;-62
2021/10/03 07:27:04;;;;;;;;;;;;;;;11.49;73.23;101869.35;2030378;71;20123;-62
2021/10/03 07:29:33;;;;;;;;;;;;;;;11.50;72.99;101875.02;2030284;71;20197;-62
2021/10/03 07:32:03;;;;;;;;;;;;;;;11.51;73.01;101872.81;2030433;71;20115;-62
2021/10/03 07:34:49;;;;;;;;;;;;;;;11.52;73.50;101869.25;1969637;72;20428;-62
2021/10/03 07:37:17;;;;;;;;;;;;;;;11.53;73.35;101873.64;1969726;73;20142;-62
2021/10/03 07:39:45;;;;;;;;;;;;;;;11.56;73.38;101876.22;1969774;72;20126;-62
2021/10/03 07:42:13;;;;;;;;;;;;;;;11.61;73.22;101873.91;1969789;72;20160;-63
2021/10/03 07:44:41;;;;;;;;;;;;;;;11.65;73.03;101871.13;1969778;73;20169;-62
2021/10/03 07:47:09;;;;;;;;;;;;;;;11.74;73.38;101874.00;1969721;72;20138;-63
2021/10/03 07:49:36;;;;;;;;;;;;;;;11.76;73.24;101872.19;1969727;73;20205;-62
2021/10/03 07:52:04;;;;;;;;;;;;;;;11.77;73.07;101874.78;1969721;73;20150;-63
2021/10/03 07:54:32;;;;;;;;;;;;;;;11.80;73.26;101873.83;1969773;73;20134;-62
2021/10/03 07:57:00;;;;;;;;;;;;;;;11.84;73.32;101870.23;1969754;73;20168;-62
2021/10/03 07:59:28;;;;;;;;;;;;;;;11.89;73.18;101868.31;1969769;73;20138;-62
2021/10/03 08:01:56;;;;;;;;;;;;;;;11.98;73.02;101870.73;1969715;72;20122;-62
2021/10/03 08:04:24;;;;;;;;;;;;;;;12.21;72.92;101862.66;1969785;73;20208;-62
2021/10/03 08:06:52;;;;;;;;;;;;;;;12.40;72.53;101870.06;1969821;73;20138;-62
2021/10/03 08:09:42;;;;;;;;;;;;;;;12.49;72.22;101860.55;1935109;74;20181;-62
2021/10/03 08:12:10;;;;;;;;;;;;;;;12.58;72.04;101855.00;1934988;74;20371;-63
2021/10/03 08:14:37;;;;;;;;;;;;;;;12.68;71.86;101852.47;1935029;74;20232;-63
2021/10/03 08:17:05;;;;;;;;;;;;;;;12.77;71.56;101854.45;1935059;74;20160;-63
2021/10/03 08:19:33;;;;;;;;;;;;;;;12.80;71.34;101860.51;1935082;74;20118;-62
2021/10/03 08:22:01;;;;;;;;;;;;;;;12.82;71.14;101860.00;1935055;74;20157;-62
2021/10/03 08:24:29;;;;;;;;;;;;;;;12.80;70.90;101866.22;1935082;74;20118;-62
2021/10/03 08:26:57;;;;;;;;;;;;;;;12.79;70.73;101868.48;1934944;74;20101;-62
2021/10/03 08:29:25;;;;;;;;;;;;;;;12.78;70.72;101882.59;1935069;74;20176;-62
2021/10/03 08:31:53;;;;;;;;;;;;;;;12.74;70.47;101880.06;1935054;74;20153;-63
2021/10/03 08:34:21;;;;;;;;;;;;;;;12.68;70.80;101879.36;1935060;74;20118;-62
2021/10/03 08:36:49;;;;;;;;;;;;;;;12.69;70.88;101868.75;1935040;74;20113;-62
2021/10/03 08:39:16;;;;;;;;;;;;;;;12.78;70.90;101864.09;1935042;74;20121;-65
2021/10/03 08:41:46;;;;;;;;;;;;;;;12.97;70.72;101849.41;1934953;74;20216;-62
2021/10/03 08:44:14;;;;;;;;;;;;;;;13.17;70.21;101846.13;1935041;74;20391;-62
2021/10/03 08:46:42;;;;;;;;;;;;;;;13.26;69.86;101838.33;1935165;74;20126;-62
2021/10/03 08:49:10;;;;;;;;;;;;;;;13.24;69.38;101841.49;1935044;74;20114;-63
2021/10/03 08:51:38;;;;;;;;;;;;;;;13.18;69.30;101845.20;1934985;74;20134;-62
2021/10/03 08:54:06;;;;;;;;;;;;;;;13.18;69.52;101846.98;1934956;74;20144;-62
2021/10/03 08:56:34;;;;;;;;;;;;;;;13.19;69.64;101854.02;1935150;74;20117;-65
2021/10/03 08:59:02;;;;;;;;;;;;;;;13.16;68.99;101843.53;1935019;74;20111;-64
2021/10/03 09:01:31;;;;;;;;;;;;;;;13.14;69.28;101838.29;1935062;74;20154;-65
2021/10/03 09:04:00;;;;;;;;;;;;;;;13.15;69.39;101840.03;1932682;74;20144;-63
2021/10/03 09:06:28;;;;;;;;;;;;;;;13.19;69.27;101836.83;1934346;74;20192;-68
2021/10/03 09:08:57;;;;;;;;;;;;;;;13.28;69.17;101841.82;1929579;74;20118;-65
2021/10/03 09:11:25;;;;;;;;;;;;;;;13.31;69.13;101837.77;1925305;75;20471;-65
2021/10/03 09:13:53;;;;;;;;;;;;;;;13.27;68.93;101844.91;1925279;75;20110;-66
2021/10/03 09:16:25;;;;;;;;;;;;;;;13.19;69.04;101851.38;1925225;75;20145;-65
2021/10/03 09:18:54;;;;;;;;;;;;;;;13.09;69.33;101859.57;1925418;75;20118;-66
2021/10/03 09:21:33;;;;;;;;;;;;;;;13.01;69.54;101860.28;1928805;74;20110;-64
2021/10/03 09:24:11;;;;;;;;;;;;;;;12.97;69.66;101871.88;1935024;74;20118;-63
2021/10/03 09:26:41;;;;;;;;;;;;;;;12.98;69.96;101869.62;1932155;74;20141;-63
2021/10/03 09:29:25;;;;;;;;;;;;;;;13.02;70.03;101867.32;1929049;74;20144;-65
2021/10/03 09:32:06;;;;;;;;;;;;;;;13.04;70.08;101862.84;1932504;74;20114;-64
2021/10/03 09:34:35;;;;;;;;;;;;;;;13.03;70.03;101862.42;1935132;74;20113;-62
2021/10/03 09:37:16;;;;;;;;;;;;;;;13.02;70.07;101862.03;1946918;73;20161;-63
2021/10/03 09:39:44;;;;;;;;;;;;;;;13.02;70.07;101862.46;1960876;73;20100;-63
2021/10/03 09:42:13;;;;;;;;;;;;;;;13.03;70.18;101848.34;1935935;73;20193;-63
2021/10/03 09:44:42;;;;;;;;;;;;;;;13.07;70.17;101842.89;1924815;75;20114;-63
2021/10/03 09:47:10;;;;;;;;;;;;;;;13.08;70.08;101842.00;1930844;73;20151;-63
2021/10/03 09:49:38;;;;;;;;;;;;;;;13.09;70.00;101842.85;1938102;73;20115;-64
2021/10/03 09:52:06;;;;;;;;;;;;;;;13.09;69.75;101845.50;1933025;73;20117;-64
2021/10/03 09:54:35;;;;;;;;;;;;;;;13.10;69.80;101840.16;1925513;75;20402;-63
2021/10/03 09:57:03;;;;;;;;;;;;;;;13.12;69.78;101839.66;1925405;75;20157;-62
2021/10/03 09:59:31;;;;;;;;;;;;;;;13.12;69.67;101837.01;1925472;74;20144;-63
2021/10/03 10:01:59;;;;;;;;;;;;;;;13.17;69.62;101835.98;1923434;75;20149;-68
2021/10/03 10:04:27;;;;;;;;;;;;;;;13.22;69.70;101828.78;1922236;75;20140;-67
2021/10/03 10:06:54;;;;;;;;;;;;;;;13.26;69.67;101831.72;1915563;74;20206;-63
2021/10/03 10:09:23;;;;;;;;;;;;;;;13.29;69.51;101818.41;1910452;75;20138;-64
2021/10/03 10:12:09;;;;;;;;;;;;;;;13.32;69.18;101813.05;1918801;75;20152;-66
2021/10/03 10:14:43;;;;;;;;;;;;;;;13.31;69.13;101806.87;1925437;73;20122;-68
2021/10/03 10:17:30;;;;;;;;;;;;;;;13.29;69.11;101809.15;1931915;74;20109;-66
2021/10/03 10:19:59;;;;;;;;;;;;;;;13.29;69.36;101817.08;1935032;74;20141;-65
2021/10/03 10:22:34;;;;;;;;;;;;;;;13.26;69.15;101814.53;1927296;74;20383;-65
2021/10/03 10:24:59;;;;;;;;;;;;;;;13.21;69.01;101809.41;1924595;74;20118;-64
2021/10/03 10:27:31;;;;;;;;;;;;;;;13.20;69.28;101817.39;1933118;74;20111;-64
2021/10/03 10:30:00;;;;;;;;;;;;;;;13.20;69.38;101816.06;1934998;74;20121;-66
2021/10/03 10:32:28;;;;;;;;;;;;;;;13.22;69.44;101814.23;1930272;74;20438;-68
2021/10/03 10:35:10;;;;;;;;;;;;;;;13.25;69.55;101816.78;1929270;74;20396;-66
2021/10/03 10:37:54;;;;;;;;;;;;;;;13.27;69.47;101817.59;1934328;74;20105;-65
2021/10/03 10:40:25;;;;;;;;;;;;;;;13.29;69.49;101818.41;1935080;74;20102;-65
2021/10/03 10:43:04;;;;;;;;;;;;;;;13.31;69.48;101819.25;1929301;74;20122;-66
2021/10/03 10:45:33;;;;;;;;;;;;;;;13.32;69.53;101815.23;1929292;74;20114;-65
2021/10/03 10:48:09;;;;;;;;;;;;;;;13.34;69.57;101814.34;1935111;74;20105;-64
2021/10/03 10:50:47;;;;;;;;;;;;;;;13.35;69.67;101816.91;1934639;74;20140;-65
2021/10/03 10:53:22;;;;;;;;;;;;;;;13.35;69.51;101812.93;1925401;75;20114;-63
2021/10/03 10:56:04;;;;;;;;;;;;;;;13.37;69.26;101810.24;1925461;75;20126;-65
2021/10/03 10:58:32;;;;;;;;;;;;;;;13.37;69.21;101807.59;1925399;75;20106;-67
2021/10/03 11:01:01;;;;;;;;;;;;;;;13.36;69.06;101808.53;1926126;74;20110;-65
2021/10/03 11:03:49;;;;;;;;;;;;;;;13.36;69.00;101801.92;1928493;74;20156;-63
2021/10/03 11:06:17;;;;;;;;;;;;;;;13.37;68.95;101800.55;1930706;74;20161;-64
2021/10/03 11:09:03;;;;;;;;;;;;;;;13.39;68.96;101805.33;1935102;74;20227;-64
2021/10/03 11:11:35;;;;;;;;;;;;;;;13.39;69.05;101801.36;1932522;74;20122;-64
2021/10/03 11:14:10;;;;;;;;;;;;;;;13.39;69.11;101801.36;1929206;74;20122;-63
2021/10/03 11:16:39;;;;;;;;;;;;;;;13.40;68.86;101801.74;1927394;74;20102;-63
2021/10/03 11:19:20;;;;;;;;;;;;;;;13.40;68.86;101812.33;1925391;74;20144;-64
2021/10/03 11:21:54;;;;;;;;;;;;;;;13.38;68.82;101812.84;1927024;74;20166;-65
2021/10/03 11:24:23;;;;;;;;;;;;;;;13.38;68.89;101823.89;1929199;74;20181;-64
2021/10/03 11:26:58;;;;;;;;;;;;;;;13.38;69.03;101823.89;1932514;74;20117;-63
2021/10/03 11:29:26;;;;;;;;;;;;;;;13.37;69.03;101824.36;1935046;74;20161;-61
2021/10/03 11:31:56;;;;;;;;;;;;;;;13.40;69.05;101816.77;1931642;74;20114;-63
2021/10/03 11:34:37;;;;;;;;;;;;;;;13.40;69.04;101816.30;1928532;74;20110;-63
2021/10/03 11:37:19;;;;;;;;;;;;;;;13.41;69.02;101822.01;1933021;74;20106;-64
2021/10/03 11:39:54;;;;;;;;;;;;;;;13.41;69.05;101804.81;1935010;74;20148;-64
2021/10/03 11:42:35;;;;;;;;;;;;;;;13.43;69.10;101802.97;1930497;74;20148;-64
2021/10/03 11:45:08;;;;;;;;;;;;;;;13.44;69.30;101792.78;1929041;74;20114;-61
2021/10/03 11:47:43;;;;;;;;;;;;;;;13.44;69.29;101788.81;1934221;74;20195;-64
2021/10/03 11:50:12;;;;;;;;;;;;;;;13.47;69.32;101787.86;1935077;74;20426;-65
2021/10/03 11:52:41;;;;;;;;;;;;;;;13.51;69.46;101787.69;1926381;74;20141;-65
2021/10/03 11:55:10;;;;;;;;;;;;;;;13.54;69.54;101793.78;1899883;75;20106;-64
2021/10/03 11:57:40;;;;;;;;;;;;;;;13.56;69.62;101794.62;1933735;74;20118;-67
2021/10/03 12:00:09;;;;;;;;;;;;;;;13.56;69.60;101795.48;1935070;74;20407;-66
2021/10/03 12:02:41;;;;;;;;;;;;;;;13.59;69.66;101790.53;1929867;74;20144;-64
2021/10/03 12:05:10;;;;;;;;;;;;;;;13.58;69.62;101788.35;1929271;74;20118;-65
2021/10/03 12:07:38;;;;;;;;;;;;;;;13.58;69.60;101795.44;1929233;74;20132;-65
2021/10/03 12:10:08;;;;;;;;;;;;;;;13.56;69.66;101797.27;1928995;74;20207;-63
2021/10/03 12:12:52;;;;;;;;;;;;;;;13.56;69.71;101794.62;1929233;74;20442;-64
2021/10/03 12:15:37;;;;;;;;;;;;;;;13.56;69.77;101792.84;1929252;74;20118;-66
2021/10/03 12:18:04;;;;;;;;;;;;;;;13.59;69.77;101795.82;1929205;74;20110;-66
2021/10/03 12:20:50;;;;;;;;;;;;;;;13.66;69.71;101798.66;1929174;74;20118;-63
2021/10/03 12:23:20;;;;;;;;;;;;;;;13.67;69.73;101799.08;1929173;74;20113;-65
2021/10/03 12:25:54;;;;;;;;;;;;;;;13.65;69.80;101808.39;1929239;74;20387;-66
2021/10/03 12:28:19;;;;;;;;;;;;;;;13.65;69.78;101799.59;1928689;74;20113;-62
2021/10/03 12:30:56;;;;;;;;;;;;;;;13.64;69.79;101799.18;1929179;74;20122;-67
2021/10/03 12:33:23;;;;;;;;;;;;;;;13.65;69.74;101795.16;1927747;74;20181;-64
2021/10/03 12:36:01;;;;;;;;;;;;;;;13.64;69.82;101797.85;1929340;74;20146;-61
2021/10/03 12:38:30;;;;;;;;;;;;;;;13.62;69.82;101798.38;1929183;74;20158;-64
2021/10/03 12:40:58;;;;;;;;;;;;;;;13.58;69.81;101796.76;1929337;74;20113;-63
2021/10/03 12:43:26;;;;;;;;;;;;;;;13.56;69.88;101798.12;1929088;74;20165;-64
2021/10/03 12:45:53;;;;;;;;;;;;;;;13.54;69.95;101793.35;1929236;74;20114;-63
2021/10/03 12:48:22;;;;;;;;;;;;;;;13.52;69.88;101793.87;1929315;74;20122;-64